Terminal Aerodrome Forecast
Issued by NWS Shreveport, LA

Home | Current Version | Previous Version | Text Only | Print | Product List | Glossary On
Versions: 1 2 3 4 5 6 7 8 9 10 11 12 13 14 15 16 17
000
FTUS44 KSHV 020500
TAFTXK
TAF
KTXK 020522Z 0206/0306 17009KT P6SM SKC
     FM020900 17007KT P6SM BKN008
     FM021300 19010KT P6SM BKN022
     FM021600 21009KT P6SM SCT035
     FM030000 17005KT P6SM SKC=

USA.gov is the U.S. government's official web portal to all federal, state and local government web resources and services.